Terminal Aerodrome Forecast
Issued by NWS Sterling, VA

Current Version | Previous Version | Graphics & Text | Print | Product List | Glossary On
Versions: 1 2 3 4 5 6 7 8 9 10 11 12 13 14
055
FTUS41 KLWX 220521
TAFMRB
TAF
KMRB 220521Z 2206/2306 VRB03KT P6SM SCT060 BKN130
     FM221000 30007KT P6SM SCT060
     FM221300 31015G27KT P6SM SCT050
     FM230000 32010KT P6SM SKC
     FM230500 VRB03KT P6SM SKC=

USA.gov is the U.S. government's official web portal to all federal, state and local government web resources and services.